»·PEaware :: ASA1990 KLAS-KSAN

ASA1990 :: KLAS-KSAN

FLIGHT INFORMATION

Flight Status: Arrived
Operator:
Alaska Airlines
More flights by this operator :: More flights under this callsign
Pilot: Sean T. (30125)
Aircraft: AIRBUS A319
(A319)
More flights by this aircraft type
Origin: KLAS McCarran Intl
United States
Destination: KSAN San Diego Intl-Lindbergh
United States
More flights between these airports :: More routes between these airports
Route: +BOACH8 LVELL LUCKI1
File this flight plan on PilotEdge
Remarks:
Altitude:
(Current/Filed)
27,000ft
Speed:
(Current/Filed)
290kts
Departed: 19-Aug-20 05:03 PM
Arrived: 19-Aug-20 05:50 PM
Distance/Time
Traveled:
225nm/0:47
Distance/Time
To Go:
Arrived

Flight Plot

Page will automatically refresh every two minutes.

Flight plan parsing failed; only flown route is shown


Map Options




Map Legend


Flown Route
Filed Route
Departure Airport
Arrival Airport
Navaid (VOR, NDB)
Fix

Horizontal Profiles

Position Reports

Time Latitude Longitude Heading Altitude Ground
Speed
19-Aug-20 16:37 36.081215 -115.139709 129 2072ft 0kts
19-Aug-20 16:38 36.081215 -115.139709 129 2072ft 0kts
19-Aug-20 16:39 36.081215 -115.139709 129 2072ft 0kts
19-Aug-20 16:40 36.081215 -115.139709 129 2072ft 0kts
19-Aug-20 16:41 36.081215 -115.139709 129 2072ft 0kts
19-Aug-20 16:42 36.081215 -115.139709 129 2072ft 0kts
19-Aug-20 16:43 36.081215 -115.139709 129 2072ft 0kts
19-Aug-20 16:44 36.081215 -115.139709 129 2072ft 0kts
19-Aug-20 16:45 36.081215 -115.139709 129 2072ft 0kts
19-Aug-20 16:46 36.081215 -115.139709 129 2072ft 0kts
19-Aug-20 16:47 36.081215 -115.139709 129 2072ft 0kts
19-Aug-20 16:48 36.081215 -115.139709 129 2072ft 0kts
19-Aug-20 16:49 36.081215 -115.139709 129 2072ft 0kts
19-Aug-20 16:50 36.081215 -115.139709 129 2072ft 0kts
19-Aug-20 16:51 36.081215 -115.139709 129 2072ft 0kts
19-Aug-20 16:52 36.081362 -115.139777 163 2072ft 1kts
19-Aug-20 16:53 36.081434 -115.139803 163 2072ft 0kts
19-Aug-20 16:54 36.081749 -115.139759 231 2071ft 0kts
19-Aug-20 16:55 36.081301 -115.141130 233 2075ft 11kts
19-Aug-20 16:56 36.079539 -115.141589 180 2083ft 0kts
19-Aug-20 16:57 36.078278 -115.140122 89 2080ft 17kts
19-Aug-20 16:58 36.077606 -115.133304 91 2061ft 24kts
19-Aug-20 16:59 36.077582 -115.127180 92 2045ft 27kts
19-Aug-20 17:00 36.077453 -115.121535 117 2038ft 0kts
19-Aug-20 17:01 36.076431 -115.122176 269 2040ft 10kts
19-Aug-20 17:02 36.076302 -115.162183 270 2637ft 177kts
19-Aug-20 17:03 36.076405 -115.224951 270 4754ft 194kts
19-Aug-20 17:04 36.041192 -115.270617 198 6460ft 235kts
19-Aug-20 17:05 35.970797 -115.300741 193 7014ft 279kts
19-Aug-20 17:06 35.893113 -115.311253 185 9120ft 287kts
19-Aug-20 17:07 35.813205 -115.310477 174 11998ft 291kts
19-Aug-20 17:08 35.733773 -115.301305 174 14888ft 283kts
19-Aug-20 17:09 35.655679 -115.295723 181 17343ft 279kts
19-Aug-20 17:10 35.578546 -115.298896 181 19380ft 281kts
19-Aug-20 17:11 35.499428 -115.302031 181 21205ft 285kts
19-Aug-20 17:12 35.419267 -115.305160 182 22787ft 293kts
19-Aug-20 17:13 35.336728 -115.308413 182 24267ft 301kts
19-Aug-20 17:14 35.252137 -115.311751 182 25642ft 309kts
19-Aug-20 17:15 35.165727 -115.315132 182 26939ft 316kts
19-Aug-20 17:16 35.076632 -115.318614 182 27803ft 335kts
19-Aug-20 17:17 34.976590 -115.322547 182 27783ft 378kts
19-Aug-20 17:18 34.871511 -115.326677 181 27778ft 380kts
19-Aug-20 17:19 34.759641 -115.340775 195 27778ft 430kts
19-Aug-20 17:20 34.642888 -115.391278 199 27788ft 452kts
19-Aug-20 17:21 34.524089 -115.443429 199 27870ft 452kts
19-Aug-20 17:22 34.406191 -115.494828 199 27928ft 451kts
19-Aug-20 17:23 34.291065 -115.555150 210 27941ft 452kts
19-Aug-20 17:24 34.181336 -115.628415 202 27941ft 452kts
19-Aug-20 17:25 34.064763 -115.684029 200 27941ft 451kts
19-Aug-20 17:26 33.948867 -115.738673 200 27870ft 450kts
19-Aug-20 17:27 33.833239 -115.794651 201 27758ft 451kts
19-Aug-20 17:28 33.716874 -115.850715 200 27443ft 451kts
19-Aug-20 17:29 33.602139 -115.904173 200 24898ft 439kts
19-Aug-20 17:30 33.499909 -115.972048 228 23721ft 396kts
19-Aug-20 17:31 33.436766 -116.079434 235 21315ft 394kts
19-Aug-20 17:32 33.378566 -116.179962 234 19462ft 358kts
19-Aug-20 17:33 33.312526 -116.265359 208 18726ft 353kts
19-Aug-20 17:34 33.224391 -116.316740 205 18328ft 356kts
19-Aug-20 17:35 33.137444 -116.367441 205 15588ft 357kts
19-Aug-20 17:36 33.049684 -116.418688 205 13300ft 340kts
19-Aug-20 17:37 32.971236 -116.478513 221 11344ft 334kts
19-Aug-20 17:38 32.901927 -116.549017 221 10026ft 308kts
19-Aug-20 17:39 32.837761 -116.613439 221 10014ft 301kts
19-Aug-20 17:40 32.775856 -116.677927 231 7981ft 288kts
19-Aug-20 17:41 32.736205 -116.757630 242 6312ft 285kts
19-Aug-20 17:42 32.702305 -116.834531 250 5843ft 238kts
19-Aug-20 17:43 32.680449 -116.906297 252 5010ft 221kts
19-Aug-20 17:44 32.680979 -116.976401 287 3723ft 223kts
19-Aug-20 17:45 32.697697 -117.042191 285 2662ft 177kts
19-Aug-20 17:46 32.709636 -117.090972 283 2002ft 144kts
19-Aug-20 17:47 32.721116 -117.137170 284 943ft 133kts
19-Aug-20 17:48 32.730858 -117.178584 283 147ft 129kts
19-Aug-20 17:49 32.735764 -117.202019 213 19ft 7kts
19-Aug-20 17:50 32.734920 -117.199766 125 19ft 9kts
19-Aug-20 17:51 32.732540 -117.200772 227 19ft 2kts

Navigation Log

Ident Type
Flight plan parsing failed, navigation log unavailable